sensor_id;sensor_type;location;lat;lon;timestamp;P1;durP1;ratioP1;P2;durP2;ratioP2
58460;SDS011;45558;37.752;-97.822;2022-08-19T00:01:41;23.52;;;3.40;;
58460;SDS011;45558;37.752;-97.822;2022-08-19T00:04:10;20.52;;;2.83;;
58460;SDS011;45558;37.752;-97.822;2022-08-19T00:06:38;21.90;;;3.03;;
58460;SDS011;45558;37.752;-97.822;2022-08-19T00:09:06;15.40;;;3.00;;
58460;SDS011;45558;37.752;-97.822;2022-08-19T00:11:33;16.15;;;2.38;;
58460;SDS011;45558;37.752;-97.822;2022-08-19T00:14:03;17.10;;;2.20;;
58460;SDS011;45558;37.752;-97.822;2022-08-19T00:16:30;18.50;;;2.92;;
58460;SDS011;45558;37.752;-97.822;2022-08-19T00:18:55;25.92;;;2.88;;
58460;SDS011;45558;37.752;-97.822;2022-08-19T00:21:22;17.77;;;2.30;;
58460;SDS011;45558;37.752;-97.822;2022-08-19T00:23:49;14.85;;;2.70;;
58460;SDS011;45558;37.752;-97.822;2022-08-19T00:26:15;27.85;;;3.50;;
58460;SDS011;45558;37.752;-97.822;2022-08-19T00:28:41;23.27;;;3.75;;
58460;SDS011;45558;37.752;-97.822;2022-08-19T00:31:07;27.60;;;3.35;;
58460;SDS011;45558;37.752;-97.822;2022-08-19T00:33:33;17.05;;;2.58;;
58460;SDS011;45558;37.752;-97.822;2022-08-19T00:36:00;26.40;;;4.18;;
58460;SDS011;45558;37.752;-97.822;2022-08-19T00:38:26;22.92;;;2.45;;
58460;SDS011;45558;37.752;-97.822;2022-08-19T00:40:53;22.23;;;3.28;;
58460;SDS011;45558;37.752;-97.822;2022-08-19T00:43:20;20.13;;;3.17;;
58460;SDS011;45558;37.752;-97.822;2022-08-19T00:45:47;24.75;;;2.60;;
58460;SDS011;45558;37.752;-97.822;2022-08-19T00:48:13;26.75;;;2.75;;
58460;SDS011;45558;37.752;-97.822;2022-08-19T00:50:40;16.98;;;2.25;;
58460;SDS011;45558;37.752;-97.822;2022-08-19T00:53:08;25.23;;;3.28;;
58460;SDS011;45558;37.752;-97.822;2022-08-19T00:55:35;21.55;;;2.80;;
58460;SDS011;45558;37.752;-97.822;2022-08-19T00:58:06;17.08;;;2.38;;
58460;SDS011;45558;37.752;-97.822;2022-08-19T01:00:34;20.67;;;3.10;;
58460;SDS011;45558;37.752;-97.822;2022-08-19T01:03:05;24.40;;;2.40;;
58460;SDS011;45558;37.752;-97.822;2022-08-19T01:05:33;26.05;;;2.90;;
58460;SDS011;45558;37.752;-97.822;2022-08-19T01:08:00;15.40;;;1.85;;
58460;SDS011;45558;37.752;-97.822;2022-08-19T01:10:29;18.67;;;2.80;;
58460;SDS011;45558;37.752;-97.822;2022-08-19T01:12:57;21.83;;;2.95;;
58460;SDS011;45558;37.752;-97.822;2022-08-19T01:15:24;18.88;;;2.83;;
58460;SDS011;45558;37.752;-97.822;2022-08-19T01:17:53;18.73;;;3.17;;
58460;SDS011;45558;37.752;-97.822;2022-08-19T01:20:20;21.42;;;2.33;;
58460;SDS011;45558;37.752;-97.822;2022-08-19T01:22:52;23.23;;;3.03;;
58460;SDS011;45558;37.752;-97.822;2022-08-19T01:25:20;14.70;;;2.28;;
58460;SDS011;45558;37.752;-97.822;2022-08-19T01:27:49;16.80;;;2.70;;
58460;SDS011;45558;37.752;-97.822;2022-08-19T01:30:17;21.55;;;2.25;;
58460;SDS011;45558;37.752;-97.822;2022-08-19T01:32:51;12.98;;;1.67;;
58460;SDS011;45558;37.752;-97.822;2022-08-19T01:35:19;19.75;;;2.83;;
58460;SDS011;45558;37.752;-97.822;2022-08-19T01:37:54;23.17;;;2.13;;
58460;SDS011;45558;37.752;-97.822;2022-08-19T01:40:20;16.70;;;2.72;;
58460;SDS011;45558;37.752;-97.822;2022-08-19T01:42:48;15.65;;;1.98;;
58460;SDS011;45558;37.752;-97.822;2022-08-19T01:45:15;12.23;;;1.45;;
58460;SDS011;45558;37.752;-97.822;2022-08-19T01:47:41;23.88;;;2.63;;
58460;SDS011;45558;37.752;-97.822;2022-08-19T01:50:08;11.45;;;1.95;;
58460;SDS011;45558;37.752;-97.822;2022-08-19T01:52:36;17.35;;;2.20;;
58460;SDS011;45558;37.752;-97.822;2022-08-19T01:55:03;27.02;;;2.72;;
58460;SDS011;45558;37.752;-97.822;2022-08-19T01:57:30;11.60;;;2.22;;
58460;SDS011;45558;37.752;-97.822;2022-08-19T01:59:55;18.00;;;2.45;;
58460;SDS011;45558;37.752;-97.822;2022-08-19T02:02:21;24.60;;;2.63;;
58460;SDS011;45558;37.752;-97.822;2022-08-19T02:04:48;27.70;;;3.05;;
58460;SDS011;45558;37.752;-97.822;2022-08-19T02:07:14;19.00;;;2.40;;
58460;SDS011;45558;37.752;-97.822;2022-08-19T02:09:40;19.10;;;3.17;;
58460;SDS011;45558;37.752;-97.822;2022-08-19T02:12:06;17.27;;;2.22;;
58460;SDS011;45558;37.752;-97.822;2022-08-19T02:14:34;22.05;;;2.08;;
58460;SDS011;45558;37.752;-97.822;2022-08-19T02:17:00;26.67;;;3.10;;
58460;SDS011;45558;37.752;-97.822;2022-08-19T02:19:26;22.15;;;3.03;;
58460;SDS011;45558;37.752;-97.822;2022-08-19T02:21:52;15.02;;;1.95;;
58460;SDS011;45558;37.752;-97.822;2022-08-19T02:24:18;18.60;;;2.75;;
58460;SDS011;45558;37.752;-97.822;2022-08-19T02:26:44;24.77;;;3.17;;
58460;SDS011;45558;37.752;-97.822;2022-08-19T02:29:10;22.25;;;2.78;;
58460;SDS011;45558;37.752;-97.822;2022-08-19T02:31:36;15.32;;;1.88;;
58460;SDS011;45558;37.752;-97.822;2022-08-19T02:34:02;19.70;;;3.17;;
58460;SDS011;45558;37.752;-97.822;2022-08-19T02:36:27;19.95;;;2.17;;
58460;SDS011;45558;37.752;-97.822;2022-08-19T02:38:55;16.55;;;2.38;;
58460;SDS011;45558;37.752;-97.822;2022-08-19T02:41:26;16.08;;;1.90;;
58460;SDS011;45558;37.752;-97.822;2022-08-19T02:43:55;15.68;;;2.22;;
58460;SDS011;45558;37.752;-97.822;2022-08-19T02:46:26;18.23;;;2.03;;
58460;SDS011;45558;37.752;-97.822;2022-08-19T02:48:55;12.93;;;1.92;;
58460;SDS011;45558;37.752;-97.822;2022-08-19T02:51:23;22.90;;;2.25;;
58460;SDS011;45558;37.752;-97.822;2022-08-19T02:53:56;23.27;;;2.42;;
58460;SDS011;45558;37.752;-97.822;2022-08-19T02:56:22;13.85;;;1.60;;
58460;SDS011;45558;37.752;-97.822;2022-08-19T02:58:50;19.20;;;2.22;;
58460;SDS011;45558;37.752;-97.822;2022-08-19T03:04:37;15.70;;;2.58;;
58460;SDS011;45558;37.752;-97.822;2022-08-19T03:07:03;14.10;;;2.03;;
58460;SDS011;45558;37.752;-97.822;2022-08-19T03:09:29;26.60;;;2.72;;
58460;SDS011;45558;37.752;-97.822;2022-08-19T03:15:16;17.85;;;2.13;;
58460;SDS011;45558;37.752;-97.822;2022-08-19T03:17:42;15.90;;;1.77;;
58460;SDS011;45558;37.752;-97.822;2022-08-19T03:20:08;22.00;;;4.07;;
58460;SDS011;45558;37.752;-97.822;2022-08-19T03:22:34;32.42;;;3.97;;
58460;SDS011;45558;37.752;-97.822;2022-08-19T03:24:59;22.80;;;2.80;;
58460;SDS011;45558;37.752;-97.822;2022-08-19T03:27:25;21.85;;;2.45;;
58460;SDS011;45558;37.752;-97.822;2022-08-19T03:29:52;19.13;;;2.13;;
58460;SDS011;45558;37.752;-97.822;2022-08-19T03:32:17;14.18;;;2.85;;
58460;SDS011;45558;37.752;-97.822;2022-08-19T03:34:43;14.70;;;2.00;;
58460;SDS011;45558;37.752;-97.822;2022-08-19T03:37:10;16.88;;;2.55;;
58460;SDS011;45558;37.752;-97.822;2022-08-19T03:39:40;18.67;;;3.47;;
58460;SDS011;45558;37.752;-97.822;2022-08-19T03:42:07;15.13;;;2.83;;
58460;SDS011;45558;37.752;-97.822;2022-08-19T03:44:33;15.23;;;1.70;;
58460;SDS011;45558;37.752;-97.822;2022-08-19T03:47:01;18.73;;;2.30;;
58460;SDS011;45558;37.752;-97.822;2022-08-19T03:49:28;17.80;;;1.90;;
58460;SDS011;45558;37.752;-97.822;2022-08-19T03:51:57;15.07;;;1.77;;
58460;SDS011;45558;37.752;-97.822;2022-08-19T03:54:24;14.68;;;2.05;;
58460;SDS011;45558;37.752;-97.822;2022-08-19T03:56:51;15.00;;;1.92;;
58460;SDS011;45558;37.752;-97.822;2022-08-19T03:59:20;12.10;;;1.17;;
58460;SDS011;45558;37.752;-97.822;2022-08-19T04:01:50;17.73;;;2.50;;
58460;SDS011;45558;37.752;-97.822;2022-08-19T04:04:15;17.33;;;1.70;;
58460;SDS011;45558;37.752;-97.822;2022-08-19T04:06:42;14.02;;;1.80;;
58460;SDS011;45558;37.752;-97.822;2022-08-19T04:09:09;9.88;;;1.60;;
58460;SDS011;45558;37.752;-97.822;2022-08-19T04:11:37;13.25;;;1.42;;
58460;SDS011;45558;37.752;-97.822;2022-08-19T04:14:15;10.93;;;1.23;;
58460;SDS011;45558;37.752;-97.822;2022-08-19T04:16:43;12.45;;;1.98;;
58460;SDS011;45558;37.752;-97.822;2022-08-19T04:19:10;14.43;;;1.27;;
58460;SDS011;45558;37.752;-97.822;2022-08-19T04:21:36;12.38;;;1.98;;
58460;SDS011;45558;37.752;-97.822;2022-08-19T04:24:02;12.00;;;1.52;;
58460;SDS011;45558;37.752;-97.822;2022-08-19T04:26:30;11.65;;;1.80;;
58460;SDS011;45558;37.752;-97.822;2022-08-19T04:28:57;11.23;;;1.48;;
58460;SDS011;45558;37.752;-97.822;2022-08-19T04:34:48;9.00;;;1.30;;
58460;SDS011;45558;37.752;-97.822;2022-08-19T04:37:14;23.45;;;1.90;;
58460;SDS011;45558;37.752;-97.822;2022-08-19T04:39:40;10.52;;;1.70;;
58460;SDS011;45558;37.752;-97.822;2022-08-19T04:42:24;14.10;;;1.88;;
58460;SDS011;45558;37.752;-97.822;2022-08-19T04:45:09;15.80;;;2.05;;
58460;SDS011;45558;37.752;-97.822;2022-08-19T04:47:37;10.80;;;1.67;;
58460;SDS011;45558;37.752;-97.822;2022-08-19T04:50:04;12.90;;;1.25;;
58460;SDS011;45558;37.752;-97.822;2022-08-19T04:52:31;13.50;;;2.10;;
58460;SDS011;45558;37.752;-97.822;2022-08-19T04:54:57;9.77;;;2.28;;
58460;SDS011;45558;37.752;-97.822;2022-08-19T04:57:23;12.68;;;1.55;;
58460;SDS011;45558;37.752;-97.822;2022-08-19T04:59:49;15.57;;;2.00;;
58460;SDS011;45558;37.752;-97.822;2022-08-19T05:02:18;9.27;;;1.63;;
58460;SDS011;45558;37.752;-97.822;2022-08-19T05:04:44;12.20;;;2.08;;
58460;SDS011;45558;37.752;-97.822;2022-08-19T05:07:09;12.85;;;1.92;;
58460;SDS011;45558;37.752;-97.822;2022-08-19T05:09:35;9.07;;;1.83;;
58460;SDS011;45558;37.752;-97.822;2022-08-19T05:12:01;14.23;;;1.70;;
58460;SDS011;45558;37.752;-97.822;2022-08-19T05:14:27;8.98;;;1.17;;
58460;SDS011;45558;37.752;-97.822;2022-08-19T05:16:53;10.95;;;1.63;;
58460;SDS011;45558;37.752;-97.822;2022-08-19T05:19:19;19.83;;;1.92;;
58460;SDS011;45558;37.752;-97.822;2022-08-19T05:22:03;14.85;;;1.35;;
58460;SDS011;45558;37.752;-97.822;2022-08-19T05:24:47;17.23;;;2.03;;
58460;SDS011;45558;37.752;-97.822;2022-08-19T05:27:14;11.65;;;1.27;;
58460;SDS011;45558;37.752;-97.822;2022-08-19T05:29:39;11.65;;;1.60;;
58460;SDS011;45558;37.752;-97.822;2022-08-19T05:32:05;12.00;;;2.83;;
58460;SDS011;45558;37.752;-97.822;2022-08-19T05:34:35;11.45;;;2.08;;
58460;SDS011;45558;37.752;-97.822;2022-08-19T05:37:03;15.05;;;1.77;;
58460;SDS011;45558;37.752;-97.822;2022-08-19T05:39:31;18.05;;;2.80;;
58460;SDS011;45558;37.752;-97.822;2022-08-19T05:42:00;11.35;;;1.30;;
58460;SDS011;45558;37.752;-97.822;2022-08-19T05:44:29;10.05;;;1.65;;
58460;SDS011;45558;37.752;-97.822;2022-08-19T05:46:57;18.02;;;1.98;;
58460;SDS011;45558;37.752;-97.822;2022-08-19T05:49:24;13.57;;;1.30;;
58460;SDS011;45558;37.752;-97.822;2022-08-19T05:55:12;11.10;;;1.00;;
58460;SDS011;45558;37.752;-97.822;2022-08-19T05:57:38;10.70;;;1.75;;
58460;SDS011;45558;37.752;-97.822;2022-08-19T06:00:05;16.98;;;1.83;;
58460;SDS011;45558;37.752;-97.822;2022-08-19T06:02:36;10.63;;;1.15;;
58460;SDS011;45558;37.752;-97.822;2022-08-19T06:05:02;8.48;;;1.00;;
58460;SDS011;45558;37.752;-97.822;2022-08-19T06:07:29;5.50;;;0.90;;
58460;SDS011;45558;37.752;-97.822;2022-08-19T06:09:55;10.45;;;1.10;;
58460;SDS011;45558;37.752;-97.822;2022-08-19T06:12:21;8.77;;;1.73;;
58460;SDS011;45558;37.752;-97.822;2022-08-19T06:14:53;10.77;;;1.05;;
58460;SDS011;45558;37.752;-97.822;2022-08-19T06:17:20;5.68;;;1.25;;
58460;SDS011;45558;37.752;-97.822;2022-08-19T06:19:50;22.40;;;8.70;;
58460;SDS011;45558;37.752;-97.822;2022-08-19T06:25:38;8.38;;;0.90;;
58460;SDS011;45558;37.752;-97.822;2022-08-19T06:28:05;5.72;;;1.15;;
58460;SDS011;45558;37.752;-97.822;2022-08-19T06:30:30;6.22;;;1.08;;
58460;SDS011;45558;37.752;-97.822;2022-08-19T06:32:56;7.95;;;1.40;;
58460;SDS011;45558;37.752;-97.822;2022-08-19T06:35:22;8.38;;;1.45;;
58460;SDS011;45558;37.752;-97.822;2022-08-19T06:37:48;14.02;;;1.25;;
58460;SDS011;45558;37.752;-97.822;2022-08-19T06:40:14;4.82;;;0.98;;
58460;SDS011;45558;37.752;-97.822;2022-08-19T06:42:40;10.45;;;1.40;;
58460;SDS011;45558;37.752;-97.822;2022-08-19T06:45:06;10.48;;;1.88;;
58460;SDS011;45558;37.752;-97.822;2022-08-19T06:47:33;7.28;;;1.10;;
58460;SDS011;45558;37.752;-97.822;2022-08-19T06:49:59;8.80;;;1.58;;
58460;SDS011;45558;37.752;-97.822;2022-08-19T06:52:31;11.00;;;1.13;;
58460;SDS011;45558;37.752;-97.822;2022-08-19T06:54:59;6.80;;;1.00;;
58460;SDS011;45558;37.752;-97.822;2022-08-19T06:57:26;10.00;;;0.93;;
58460;SDS011;45558;37.752;-97.822;2022-08-19T06:59:52;9.18;;;1.00;;
58460;SDS011;45558;37.752;-97.822;2022-08-19T07:05:41;3.70;;;0.60;;
58460;SDS011;45558;37.752;-97.822;2022-08-19T07:08:07;5.40;;;0.88;;
58460;SDS011;45558;37.752;-97.822;2022-08-19T07:10:34;10.68;;;1.58;;
58460;SDS011;45558;37.752;-97.822;2022-08-19T07:13:01;10.23;;;0.98;;
58460;SDS011;45558;37.752;-97.822;2022-08-19T07:15:28;4.45;;;0.60;;
58460;SDS011;45558;37.752;-97.822;2022-08-19T07:17:55;5.85;;;0.93;;
58460;SDS011;45558;37.752;-97.822;2022-08-19T07:20:21;9.75;;;1.00;;
58460;SDS011;45558;37.752;-97.822;2022-08-19T07:22:47;4.90;;;1.40;;
58460;SDS011;45558;37.752;-97.822;2022-08-19T07:25:14;5.28;;;0.80;;
58460;SDS011;45558;37.752;-97.822;2022-08-19T07:27:42;6.15;;;0.50;;
58460;SDS011;45558;37.752;-97.822;2022-08-19T07:30:09;7.38;;;0.68;;
58460;SDS011;45558;37.752;-97.822;2022-08-19T07:32:36;7.13;;;0.73;;
58460;SDS011;45558;37.752;-97.822;2022-08-19T07:35:03;8.98;;;1.08;;
58460;SDS011;45558;37.752;-97.822;2022-08-19T07:37:31;8.70;;;1.05;;
58460;SDS011;45558;37.752;-97.822;2022-08-19T07:39:57;10.45;;;1.23;;
58460;SDS011;45558;37.752;-97.822;2022-08-19T07:42:24;4.80;;;0.90;;
58460;SDS011;45558;37.752;-97.822;2022-08-19T07:44:50;6.05;;;0.80;;
58460;SDS011;45558;37.752;-97.822;2022-08-19T07:47:17;10.95;;;0.70;;
58460;SDS011;45558;37.752;-97.822;2022-08-19T07:49:43;9.30;;;0.75;;
58460;SDS011;45558;37.752;-97.822;2022-08-19T07:52:09;7.70;;;0.80;;
58460;SDS011;45558;37.752;-97.822;2022-08-19T07:54:36;9.38;;;1.33;;
58460;SDS011;45558;37.752;-97.822;2022-08-19T07:57:03;6.40;;;0.98;;
58460;SDS011;45558;37.752;-97.822;2022-08-19T07:59:29;8.25;;;1.45;;
58460;SDS011;45558;37.752;-97.822;2022-08-19T08:01:55;8.27;;;1.98;;
58460;SDS011;45558;37.752;-97.822;2022-08-19T08:04:22;4.65;;;1.40;;
58460;SDS011;45558;37.752;-97.822;2022-08-19T08:07:06;4.00;;;0.80;;
58460;SDS011;45558;37.752;-97.822;2022-08-19T08:09:51;6.18;;;1.08;;
58460;SDS011;45558;37.752;-97.822;2022-08-19T08:12:26;9.05;;;0.90;;
58460;SDS011;45558;37.752;-97.822;2022-08-19T08:14:56;7.68;;;1.63;;
58460;SDS011;45558;37.752;-97.822;2022-08-19T08:17:25;6.70;;;1.05;;
58460;SDS011;45558;37.752;-97.822;2022-08-19T08:23:13;4.85;;;0.77;;
58460;SDS011;45558;37.752;-97.822;2022-08-19T08:25:53;9.00;;;1.02;;
58460;SDS011;45558;37.752;-97.822;2022-08-19T08:28:21;8.35;;;1.15;;
58460;SDS011;45558;37.752;-97.822;2022-08-19T08:30:48;8.18;;;1.08;;
58460;SDS011;45558;37.752;-97.822;2022-08-19T08:33:19;7.85;;;0.90;;
58460;SDS011;45558;37.752;-97.822;2022-08-19T08:38:12;5.97;;;0.70;;
58460;SDS011;45558;37.752;-97.822;2022-08-19T08:40:42;12.27;;;1.38;;
58460;SDS011;45558;37.752;-97.822;2022-08-19T08:43:54;6.47;;;1.15;;
58460;SDS011;45558;37.752;-97.822;2022-08-19T08:46:35;17.13;;;1.15;;
58460;SDS011;45558;37.752;-97.822;2022-08-19T08:51:54;6.82;;;1.08;;
58460;SDS011;45558;37.752;-97.822;2022-08-19T08:54:43;8.43;;;1.77;;
58460;SDS011;45558;37.752;-97.822;2022-08-19T08:57:11;9.23;;;1.25;;
58460;SDS011;45558;37.752;-97.822;2022-08-19T08:59:39;11.52;;;1.50;;
58460;SDS011;45558;37.752;-97.822;2022-08-19T09:02:07;9.77;;;2.05;;
58460;SDS011;45558;37.752;-97.822;2022-08-19T09:04:37;7.72;;;1.25;;
58460;SDS011;45558;37.752;-97.822;2022-08-19T09:10:21;6.38;;;1.13;;
58460;SDS011;45558;37.752;-97.822;2022-08-19T09:15:46;8.50;;;1.60;;
58460;SDS011;45558;37.752;-97.822;2022-08-19T09:18:15;8.77;;;1.88;;
58460;SDS011;45558;37.752;-97.822;2022-08-19T09:20:44;10.70;;;1.80;;
58460;SDS011;45558;37.752;-97.822;2022-08-19T09:23:12;9.93;;;1.17;;
58460;SDS011;45558;37.752;-97.822;2022-08-19T09:25:38;11.35;;;1.80;;
58460;SDS011;45558;37.752;-97.822;2022-08-19T09:28:05;10.13;;;2.45;;
58460;SDS011;45558;37.752;-97.822;2022-08-19T09:30:34;10.30;;;1.33;;
58460;SDS011;45558;37.752;-97.822;2022-08-19T09:33:05;9.40;;;1.38;;
58460;SDS011;45558;37.752;-97.822;2022-08-19T09:35:31;11.27;;;1.10;;
58460;SDS011;45558;37.752;-97.822;2022-08-19T09:37:58;9.55;;;1.92;;
58460;SDS011;45558;37.752;-97.822;2022-08-19T09:40:25;11.13;;;1.38;;
58460;SDS011;45558;37.752;-97.822;2022-08-19T09:42:52;9.40;;;1.05;;
58460;SDS011;45558;37.752;-97.822;2022-08-19T09:45:19;8.45;;;1.20;;
58460;SDS011;45558;37.752;-97.822;2022-08-19T09:47:47;7.45;;;1.38;;
58460;SDS011;45558;37.752;-97.822;2022-08-19T09:50:16;7.15;;;1.25;;
58460;SDS011;45558;37.752;-97.822;2022-08-19T09:52:43;7.32;;;1.35;;
58460;SDS011;45558;37.752;-97.822;2022-08-19T09:55:10;8.20;;;1.30;;
58460;SDS011;45558;37.752;-97.822;2022-08-19T09:57:37;6.97;;;1.25;;
58460;SDS011;45558;37.752;-97.822;2022-08-19T10:00:04;10.98;;;1.88;;
58460;SDS011;45558;37.752;-97.822;2022-08-19T10:02:33;11.38;;;1.25;;
58460;SDS011;45558;37.752;-97.822;2022-08-19T10:05:01;24.02;;;6.22;;
58460;SDS011;45558;37.752;-97.822;2022-08-19T10:07:48;9.35;;;1.52;;
58460;SDS011;45558;37.752;-97.822;2022-08-19T10:10:15;8.15;;;1.42;;
58460;SDS011;45558;37.752;-97.822;2022-08-19T10:12:41;10.68;;;1.65;;
58460;SDS011;45558;37.752;-97.822;2022-08-19T10:15:11;8.93;;;1.50;;
58460;SDS011;45558;37.752;-97.822;2022-08-19T10:17:38;12.18;;;1.27;;
58460;SDS011;45558;37.752;-97.822;2022-08-19T10:20:05;10.35;;;1.70;;
58460;SDS011;45558;37.752;-97.822;2022-08-19T10:22:31;14.32;;;1.70;;
58460;SDS011;45558;37.752;-97.822;2022-08-19T10:24:59;9.10;;;1.83;;
58460;SDS011;45558;37.752;-97.822;2022-08-19T10:27:26;8.40;;;2.20;;
58460;SDS011;45558;37.752;-97.822;2022-08-19T10:29:52;7.05;;;1.23;;
58460;SDS011;45558;37.752;-97.822;2022-08-19T10:32:17;8.35;;;1.60;;
58460;SDS011;45558;37.752;-97.822;2022-08-19T10:34:47;9.75;;;1.33;;
58460;SDS011;45558;37.752;-97.822;2022-08-19T10:39:43;9.48;;;1.02;;
58460;SDS011;45558;37.752;-97.822;2022-08-19T10:42:15;12.13;;;1.55;;
58460;SDS011;45558;37.752;-97.822;2022-08-19T10:44:43;7.13;;;1.30;;
58460;SDS011;45558;37.752;-97.822;2022-08-19T10:47:11;8.35;;;1.35;;
58460;SDS011;45558;37.752;-97.822;2022-08-19T10:49:37;3.97;;;1.20;;
58460;SDS011;45558;37.752;-97.822;2022-08-19T10:52:23;8.40;;;1.30;;
58460;SDS011;45558;37.752;-97.822;2022-08-19T10:54:59;10.35;;;1.08;;
58460;SDS011;45558;37.752;-97.822;2022-08-19T11:01:06;5.25;;;1.20;;
58460;SDS011;45558;37.752;-97.822;2022-08-19T11:03:34;4.90;;;1.05;;
58460;SDS011;45558;37.752;-97.822;2022-08-19T11:06:01;7.47;;;1.40;;
58460;SDS011;45558;37.752;-97.822;2022-08-19T11:08:29;9.88;;;2.28;;
58460;SDS011;45558;37.752;-97.822;2022-08-19T11:11:02;9.30;;;1.60;;
58460;SDS011;45558;37.752;-97.822;2022-08-19T11:13:33;12.13;;;1.42;;
58460;SDS011;45558;37.752;-97.822;2022-08-19T11:16:03;8.20;;;1.50;;
58460;SDS011;45558;37.752;-97.822;2022-08-19T11:21:08;9.60;;;1.50;;
58460;SDS011;45558;37.752;-97.822;2022-08-19T11:23:36;6.70;;;1.40;;
58460;SDS011;45558;37.752;-97.822;2022-08-19T11:26:02;5.07;;;1.55;;
58460;SDS011;45558;37.752;-97.822;2022-08-19T11:28:30;9.50;;;1.40;;
58460;SDS011;45558;37.752;-97.822;2022-08-19T11:30:56;11.32;;;1.60;;
58460;SDS011;45558;37.752;-97.822;2022-08-19T11:33:22;8.07;;;1.40;;
58460;SDS011;45558;37.752;-97.822;2022-08-19T11:35:50;7.15;;;1.60;;
58460;SDS011;45558;37.752;-97.822;2022-08-19T11:38:16;7.28;;;1.63;;
58460;SDS011;45558;37.752;-97.822;2022-08-19T11:40:43;8.35;;;1.25;;
58460;SDS011;45558;37.752;-97.822;2022-08-19T11:43:09;6.97;;;1.25;;
58460;SDS011;45558;37.752;-97.822;2022-08-19T11:45:35;7.18;;;1.15;;
58460;SDS011;45558;37.752;-97.822;2022-08-19T11:48:01;9.52;;;1.63;;
58460;SDS011;45558;37.752;-97.822;2022-08-19T11:50:27;6.60;;;1.50;;
58460;SDS011;45558;37.752;-97.822;2022-08-19T11:52:54;9.45;;;2.50;;
58460;SDS011;45558;37.752;-97.822;2022-08-19T11:55:21;6.15;;;1.30;;
58460;SDS011;45558;37.752;-97.822;2022-08-19T11:57:48;5.82;;;1.25;;
58460;SDS011;45558;37.752;-97.822;2022-08-19T12:00:14;7.00;;;1.70;;
58460;SDS011;45558;37.752;-97.822;2022-08-19T12:02:40;6.50;;;1.60;;
58460;SDS011;45558;37.752;-97.822;2022-08-19T12:05:07;4.22;;;1.15;;
58460;SDS011;45558;37.752;-97.822;2022-08-19T12:07:33;8.73;;;1.33;;
58460;SDS011;45558;37.752;-97.822;2022-08-19T12:09:59;6.13;;;1.40;;
58460;SDS011;45558;37.752;-97.822;2022-08-19T12:12:26;3.22;;;1.00;;
58460;SDS011;45558;37.752;-97.822;2022-08-19T12:14:52;5.65;;;1.10;;
58460;SDS011;45558;37.752;-97.822;2022-08-19T12:17:27;4.50;;;1.02;;
58460;SDS011;45558;37.752;-97.822;2022-08-19T12:19:55;2.88;;;0.93;;
58460;SDS011;45558;37.752;-97.822;2022-08-19T12:22:22;7.30;;;1.15;;
58460;SDS011;45558;37.752;-97.822;2022-08-19T12:24:48;8.82;;;1.45;;
58460;SDS011;45558;37.752;-97.822;2022-08-19T12:27:16;3.20;;;1.00;;
58460;SDS011;45558;37.752;-97.822;2022-08-19T12:29:42;7.03;;;1.20;;
58460;SDS011;45558;37.752;-97.822;2022-08-19T12:32:08;8.07;;;1.25;;
58460;SDS011;45558;37.752;-97.822;2022-08-19T12:34:33;3.67;;;1.33;;
58460;SDS011;45558;37.752;-97.822;2022-08-19T12:37:02;7.50;;;1.60;;
58460;SDS011;45558;37.752;-97.822;2022-08-19T12:39:29;6.07;;;1.13;;
58460;SDS011;45558;37.752;-97.822;2022-08-19T12:41:56;5.57;;;1.13;;
58460;SDS011;45558;37.752;-97.822;2022-08-19T12:44:23;7.53;;;1.08;;
58460;SDS011;45558;37.752;-97.822;2022-08-19T12:46:48;7.63;;;0.93;;
58460;SDS011;45558;37.752;-97.822;2022-08-19T12:49:14;6.90;;;1.30;;
58460;SDS011;45558;37.752;-97.822;2022-08-19T12:51:40;6.35;;;1.67;;
58460;SDS011;45558;37.752;-97.822;2022-08-19T12:54:07;9.43;;;0.90;;
58460;SDS011;45558;37.752;-97.822;2022-08-19T12:56:33;5.10;;;1.00;;
58460;SDS011;45558;37.752;-97.822;2022-08-19T12:59:02;5.45;;;1.20;;
58460;SDS011;45558;37.752;-97.822;2022-08-19T13:01:31;6.80;;;1.08;;
58460;SDS011;45558;37.752;-97.822;2022-08-19T13:04:01;9.20;;;1.20;;
58460;SDS011;45558;37.752;-97.822;2022-08-19T13:06:30;4.25;;;1.00;;
58460;SDS011;45558;37.752;-97.822;2022-08-19T13:08:58;7.38;;;1.02;;
58460;SDS011;45558;37.752;-97.822;2022-08-19T13:11:24;5.70;;;0.98;;
58460;SDS011;45558;37.752;-97.822;2022-08-19T13:13:51;3.50;;;0.80;;
58460;SDS011;45558;37.752;-97.822;2022-08-19T13:16:20;6.88;;;1.20;;
58460;SDS011;45558;37.752;-97.822;2022-08-19T13:18:47;4.25;;;0.75;;
58460;SDS011;45558;37.752;-97.822;2022-08-19T13:21:18;5.40;;;1.27;;
58460;SDS011;45558;37.752;-97.822;2022-08-19T13:23:47;6.00;;;1.00;;
58460;SDS011;45558;37.752;-97.822;2022-08-19T13:26:14;7.65;;;1.35;;
58460;SDS011;45558;37.752;-97.822;2022-08-19T13:32:17;3.38;;;1.45;;
58460;SDS011;45558;37.752;-97.822;2022-08-19T13:35:02;5.25;;;1.23;;
58460;SDS011;45558;37.752;-97.822;2022-08-19T13:37:29;6.43;;;1.08;;
58460;SDS011;45558;37.752;-97.822;2022-08-19T13:40:09;4.28;;;0.93;;
58460;SDS011;45558;37.752;-97.822;2022-08-19T13:42:48;6.05;;;1.00;;
58460;SDS011;45558;37.752;-97.822;2022-08-19T13:45:15;9.18;;;1.25;;
58460;SDS011;45558;37.752;-97.822;2022-08-19T13:47:44;5.53;;;1.10;;
58460;SDS011;45558;37.752;-97.822;2022-08-19T13:50:12;8.65;;;1.30;;
58460;SDS011;45558;37.752;-97.822;2022-08-19T13:52:39;7.57;;;1.15;;
58460;SDS011;45558;37.752;-97.822;2022-08-19T13:55:05;4.65;;;0.90;;
58460;SDS011;45558;37.752;-97.822;2022-08-19T13:57:32;6.93;;;1.23;;
58460;SDS011;45558;37.752;-97.822;2022-08-19T13:59:58;3.15;;;0.93;;
58460;SDS011;45558;37.752;-97.822;2022-08-19T14:02:24;4.15;;;1.23;;
58460;SDS011;45558;37.752;-97.822;2022-08-19T14:04:51;6.75;;;0.82;;
58460;SDS011;45558;37.752;-97.822;2022-08-19T14:07:18;3.75;;;1.17;;
58460;SDS011;45558;37.752;-97.822;2022-08-19T14:09:43;3.40;;;0.90;;
58460;SDS011;45558;37.752;-97.822;2022-08-19T14:12:09;5.55;;;1.27;;
58460;SDS011;45558;37.752;-97.822;2022-08-19T14:14:38;6.22;;;1.00;;
58460;SDS011;45558;37.752;-97.822;2022-08-19T14:17:07;6.38;;;1.10;;
58460;SDS011;45558;37.752;-97.822;2022-08-19T14:19:34;4.60;;;1.23;;
58460;SDS011;45558;37.752;-97.822;2022-08-19T14:22:00;2.88;;;0.80;;
58460;SDS011;45558;37.752;-97.822;2022-08-19T14:24:25;4.97;;;1.02;;
58460;SDS011;45558;37.752;-97.822;2022-08-19T14:26:52;5.00;;;1.27;;
58460;SDS011;45558;37.752;-97.822;2022-08-19T14:29:17;8.45;;;1.83;;
58460;SDS011;45558;37.752;-97.822;2022-08-19T14:31:44;8.50;;;1.40;;
58460;SDS011;45558;37.752;-97.822;2022-08-19T14:34:10;4.93;;;1.08;;
58460;SDS011;45558;37.752;-97.822;2022-08-19T14:36:37;6.32;;;1.27;;
58460;SDS011;45558;37.752;-97.822;2022-08-19T14:39:04;4.80;;;1.23;;
58460;SDS011;45558;37.752;-97.822;2022-08-19T14:41:30;6.68;;;0.77;;
58460;SDS011;45558;37.752;-97.822;2022-08-19T14:43:56;4.55;;;1.10;;
58460;SDS011;45558;37.752;-97.822;2022-08-19T14:46:23;3.70;;;0.70;;
58460;SDS011;45558;37.752;-97.822;2022-08-19T14:48:50;3.63;;;0.70;;
58460;SDS011;45558;37.752;-97.822;2022-08-19T14:51:17;3.80;;;1.00;;
58460;SDS011;45558;37.752;-97.822;2022-08-19T14:53:44;4.05;;;0.77;;
58460;SDS011;45558;37.752;-97.822;2022-08-19T14:56:11;2.95;;;0.77;;
58460;SDS011;45558;37.752;-97.822;2022-08-19T14:58:39;8.52;;;0.88;;
58460;SDS011;45558;37.752;-97.822;2022-08-19T15:01:06;4.05;;;1.00;;
58460;SDS011;45558;37.752;-97.822;2022-08-19T15:03:32;5.85;;;0.95;;
58460;SDS011;45558;37.752;-97.822;2022-08-19T15:06:02;3.45;;;0.80;;
58460;SDS011;45558;37.752;-97.822;2022-08-19T15:08:29;4.55;;;0.93;;